Rock Rapids, IA

6:50 AM CST on February 24, 2017 (GMT -0600)
| | Change Station
Active Advisory: Blizzard Warning Active Notice: Public Information Statement

Elev -9999 ft 0.00 °N, 0.00 °E | Updated 0 second ago

Overcast
Overcast
°F
Feels Like °F
N
Wind Variable Wind from North
Gusts mph

Today
High -- | Low -- °F
--% Chance of Precip.
Yesterday
High -- | Low -- °F
Precip. -- in
Pressure 29.84 in
Visibility 5.0 miles
Clouds Scattered Clouds 1700 ft
Scattered Clouds 4900 ft
Overcast 5500 ft
Dew Point Not available.
Humidity Not available.
Rainfall --
Snow Depth Not available.
7:08 AM 6:07 PM
Waning Crescent, 5% visible
METAR KLYV 241238Z AUTO 02016G26KT 5SM HZ SCT017 SCT049 OVC055 M05/M08 A2984 RMK AO2
Pressure 29.84 in
Visibility 5.0 miles
Clouds Scattered Clouds 1700 ft
Scattered Clouds 4900 ft
Overcast 5500 ft
Dew Point Not available.
Humidity Not available.
Rainfall --
Snow Depth Not available.
7:08 AM 6:07 PM
Waning Crescent, 5% visible
METAR KLYV 241238Z AUTO 02016G26KT 5SM HZ SCT017 SCT049 OVC055 M05/M08 A2984 RMK AO2

Get Your Daily Forecast Email!

Thanks for signing up!

Be on the lookout for a verification email in your inbox.

You'll start receiving the daily forecast at 8 AM.

×

10-Day Weather Forecast

Almanac

Astronomy

Feb. 24, 2017 Rise Set
Actual Time
Civil Twilight
Nautical Twilight
Astronomical Twilight
Moon
Length of Visible Light
Length of Day
Tomorrow will be .
, % of the Moon is Illuminated

Today's Extremes

State Highs State Lows

Community

WunderPhotos

Upload Photos

1,962,540 photos uploaded!

WunderBlog® & News

Nearby

Air Quality

  Air Quality AQ Index Pollutant
Not available.

Snow Depth

Station Depth Elevation

Earthquake Activity

City Distance Mag. Time & Date
Minimum magnitude displayed is 2.5.

Coastal Water Temperatures

Place Temperature

Stations

Nearby Weather Stations

Station Location Temp. Windchill Dew Point Humidity Wind Precip. Elev Updated Type
                   

Watches & Warnings

Blizzard Warning
Issued: 4:13 AM CST Feb. 24, 2017 – National Weather Service

... Blizzard Warning remains in effect until noon CST today...

* timing... snow will continue this morning, gradually tapering off
by midday.

* Accumulations... additional accumulations of 1 to 3 inches are
possible, with the highest amounts south of Highway 18.

* Wind and visibility... north winds of 20 to 30 mph, with
occasional gusts of 35 to 40 mph, will be common today. Expect
areas of low visibility, especially while snow is falling.

Precautionary/preparedness actions...

A Blizzard Warning means severe winter weather conditions are
expected or occurring. Falling and blowing snow with strong winds
and poor visibilities are likely. This will lead to whiteout
conditions... making travel extremely dangerous. Do not travel. If
you must travel... have a winter survival kit with you. If you get
stranded... stay with your vehicle.